Time;durP1;ratioP1;P1;durP2;ratioP2;P2;SDS_P1;SDS_P2;PMS_P1;PMS_P2;Temp;Humidity;BMP_temperature;BMP_pressure;BME280_temperature;BME280_humidity;BME280_pressure;Samples;Min_cycle;Max_cycle;Signal;HPM_P1;HPM_P2
2023/05/05 00:00:40;;;;;;;21.00;19.50;;;16.30;99.90;;;;;;4973425;28;20452;-73
2023/05/05 00:03:06;;;;;;;21.00;19.17;;;16.30;99.90;;;;;;4973496;28;20456;-73
2023/05/05 00:05:33;;;;;;;20.70;19.30;;;16.30;99.90;;;;;;4973059;28;20514;-74
2023/05/05 00:08:01;;;;;;;20.10;18.57;;;16.30;99.90;;;;;;4972825;28;20506;-73
2023/05/05 00:10:28;;;;;;;19.97;18.47;;;16.40;99.90;;;;;;4972772;28;20940;-74
2023/05/05 00:12:54;;;;;;;20.10;18.40;;;16.50;99.90;;;;;;4972979;28;20459;-73
2023/05/05 00:15:21;;;;;;;18.47;17.07;;;16.50;99.90;;;;;;4972951;28;20472;-73
2023/05/05 00:17:48;;;;;;;21.03;19.50;;;16.40;99.90;;;;;;4972686;28;21086;-73
2023/05/05 00:20:14;;;;;;;20.23;18.57;;;16.40;99.90;;;;;;4972648;28;20707;-73
2023/05/05 00:22:41;;;;;;;20.40;18.90;;;16.20;99.90;;;;;;4972765;28;20447;-73
2023/05/05 00:25:09;;;;;;;21.47;19.80;;;16.10;99.90;;;;;;4972632;28;20454;-73
2023/05/05 00:27:36;;;;;;;21.30;19.70;;;16.10;99.90;;;;;;4972552;28;20486;-73
2023/05/05 00:30:04;;;;;;;20.57;19.03;;;16.10;99.90;;;;;;4972704;28;20510;-73
2023/05/05 00:32:30;;;;;;;19.50;18.10;;;16.00;99.90;;;;;;4972019;28;20463;-74
2023/05/05 00:34:57;;;;;;;19.70;18.40;;;16.00;99.90;;;;;;4972228;28;20448;-72
2023/05/05 00:37:24;;;;;;;20.83;19.33;;;15.90;99.90;;;;;;4972353;28;20518;-72
2023/05/05 00:39:50;;;;;;;21.97;20.20;;;15.80;99.90;;;;;;4971956;28;20872;-72
2023/05/05 00:42:18;;;;;;;23.70;21.60;;;15.80;99.90;;;;;;4971995;28;20485;-72
2023/05/05 00:44:45;;;;;;;21.40;19.70;;;15.80;99.90;;;;;;4972229;28;20455;-72
2023/05/05 00:47:13;;;;;;;22.77;21.10;;;15.80;99.90;;;;;;4972201;28;20487;-72
2023/05/05 00:49:40;;;;;;;22.03;20.43;;;15.80;99.90;;;;;;4972385;28;20486;-73
2023/05/05 00:52:08;;;;;;;21.50;19.93;;;15.70;99.90;;;;;;4972640;28;20444;-72
2023/05/05 00:54:35;;;;;;;22.80;21.00;;;15.70;99.90;;;;;;4972221;28;20455;-74
2023/05/05 00:57:03;;;;;;;22.03;20.63;;;15.60;99.90;;;;;;4971931;28;20471;-71
2023/05/05 00:59:33;;;;;;;23.70;21.60;;;15.70;99.90;;;;;;4971978;28;20448;-72
2023/05/05 01:02:00;;;;;;;22.20;20.50;;;15.70;99.90;;;;;;4971849;28;20702;-74
2023/05/05 01:04:26;;;;;;;23.00;21.20;;;15.70;99.90;;;;;;4971861;28;20471;-74
2023/05/05 01:07:03;;;;;;;23.40;21.60;;;15.60;99.90;;;;;;4972001;28;20460;-74
2023/05/05 01:09:38;;;;;;;21.27;19.67;;;15.60;99.90;;;;;;4971592;28;21299;-75
2023/05/05 01:12:15;;;;;;;21.20;19.80;;;15.50;99.90;;;;;;4971862;28;20939;-75
2023/05/05 01:14:47;;;;;;;22.90;21.17;;;15.50;99.90;;;;;;4971861;28;20455;-74
2023/05/05 01:17:17;;;;;;;23.00;21.43;;;15.40;99.90;;;;;;4971863;28;20538;-75
2023/05/05 01:20:06;;;;;;;23.27;21.63;;;15.40;99.90;;;;;;4971917;28;20542;-75
2023/05/05 01:22:39;;;;;;;23.43;21.23;;;15.50;99.90;;;;;;4971727;28;20467;-73
2023/05/05 01:25:21;;;;;;;23.87;21.87;;;15.40;99.90;;;;;;4972175;28;20539;-74
2023/05/05 01:28:06;;;;;;;23.40;21.70;;;15.40;99.90;;;;;;4971541;28;20456;-75
2023/05/05 01:30:55;;;;;;;23.97;22.07;;;15.40;99.90;;;;;;4971792;28;20629;-75
2023/05/05 01:33:28;;;;;;;21.37;19.63;;;15.30;99.90;;;;;;4971878;28;20532;-74
2023/05/05 01:35:57;;;;;;;22.43;20.83;;;15.20;99.90;;;;;;4971909;28;20463;-74
2023/05/05 01:38:32;;;;;;;24.13;22.20;;;15.20;99.90;;;;;;4972075;28;20451;-75
2023/05/05 01:41:05;;;;;;;21.17;19.63;;;15.20;99.90;;;;;;4971536;28;20467;-74
2023/05/05 01:43:34;;;;;;;22.90;21.13;;;15.10;99.90;;;;;;4970637;28;20827;-74
2023/05/05 01:46:03;;;;;;;23.73;22.03;;;15.10;99.90;;;;;;4971637;28;20452;-75
2023/05/05 01:48:32;;;;;;;23.57;21.70;;;15.10;99.90;;;;;;4971436;28;20494;-74
2023/05/05 01:51:00;;;;;;;23.73;22.07;;;15.00;99.90;;;;;;4971315;28;20455;-73
2023/05/05 01:53:28;;;;;;;25.07;23.20;;;14.90;99.90;;;;;;4971358;28;20452;-74
2023/05/05 01:55:56;;;;;;;24.07;21.63;;;14.90;99.90;;;;;;4971578;28;20456;-74
2023/05/05 01:58:25;;;;;;;25.50;23.53;;;14.90;99.90;;;;;;4971799;28;20560;-74
2023/05/05 02:00:54;;;;;;;24.50;22.80;;;14.90;99.90;;;;;;4971633;28;20502;-74
2023/05/05 02:03:22;;;;;;;24.57;22.83;;;14.90;99.90;;;;;;4971131;28;20470;-74
2023/05/05 02:05:52;;;;;;;23.43;21.83;;;14.90;99.90;;;;;;4970829;28;20462;-73
2023/05/05 02:08:20;;;;;;;21.47;19.97;;;15.00;99.90;;;;;;4970790;28;20520;-73
2023/05/05 02:10:48;;;;;;;22.10;20.50;;;15.00;99.90;;;;;;4970622;28;20491;-73
2023/05/05 02:13:17;;;;;;;23.97;22.03;;;15.00;99.90;;;;;;4970733;28;20477;-73
2023/05/05 02:15:44;;;;;;;22.63;21.13;;;15.00;99.90;;;;;;4970557;28;20447;-74
2023/05/05 02:18:12;;;;;;;23.47;21.87;;;14.90;99.90;;;;;;4970924;28;20540;-73
2023/05/05 02:20:40;;;;;;;23.43;21.53;;;14.90;99.90;;;;;;4970933;28;20452;-73
2023/05/05 02:23:08;;;;;;;22.27;20.80;;;14.80;99.90;;;;;;4970721;28;20950;-74
2023/05/05 02:25:38;;;;;;;25.23;23.43;;;14.90;99.90;;;;;;4970724;28;20463;-73
2023/05/05 02:28:11;;;;;;;20.03;18.73;;;14.90;99.90;;;;;;4970683;28;20463;-74
2023/05/05 02:30:39;;;;;;;22.43;20.93;;;14.80;99.90;;;;;;4970744;28;20459;-73
2023/05/05 02:33:08;;;;;;;22.93;21.13;;;14.80;99.90;;;;;;4970530;28;20481;-74
2023/05/05 02:35:38;;;;;;;25.43;23.37;;;14.80;99.90;;;;;;4970797;28;20464;-73
2023/05/05 02:38:11;;;;;;;24.20;22.47;;;14.70;99.90;;;;;;4970551;28;20942;-73
2023/05/05 02:40:41;;;;;;;24.00;22.30;;;14.70;99.90;;;;;;4970343;28;20538;-73
2023/05/05 02:43:11;;;;;;;24.30;22.20;;;14.60;99.90;;;;;;4970360;28;20481;-73
2023/05/05 02:45:38;;;;;;;26.30;23.97;;;14.50;99.90;;;;;;4970461;28;20459;-73
2023/05/05 02:48:05;;;;;;;25.20;23.27;;;14.50;99.90;;;;;;4970125;28;20447;-73
2023/05/05 02:50:32;;;;;;;25.67;23.53;;;14.40;99.90;;;;;;4970155;28;20459;-73
2023/05/05 02:53:00;;;;;;;25.33;23.00;;;14.30;99.90;;;;;;4970232;28;20522;-73
2023/05/05 02:55:37;;;;;;;25.40;23.50;;;14.30;99.90;;;;;;4970308;28;20459;-73
2023/05/05 02:58:07;;;;;;;23.97;22.07;;;14.30;99.90;;;;;;4969874;28;20466;-73
2023/05/05 03:00:41;;;;;;;26.20;24.03;;;14.20;99.90;;;;;;4970098;28;20450;-73
2023/05/05 03:03:15;;;;;;;26.63;24.33;;;14.20;99.90;;;;;;4970260;28;20455;-72
2023/05/05 03:05:46;;;;;;;26.60;24.47;;;14.20;99.90;;;;;;4970000;28;20573;-72
2023/05/05 03:08:17;;;;;;;26.40;24.30;;;14.20;99.90;;;;;;4969884;28;20455;-73
2023/05/05 03:10:51;;;;;;;30.87;27.97;;;14.20;99.90;;;;;;4970220;28;20941;-73
2023/05/05 03:13:22;;;;;;;27.37;25.10;;;14.20;99.90;;;;;;4973677;28;20459;-71
2023/05/05 03:15:52;;;;;;;26.97;25.10;;;14.20;99.90;;;;;;4971605;28;20567;-71
2023/05/05 03:18:22;;;;;;;26.67;24.53;;;14.20;99.90;;;;;;4970068;28;20776;-71
2023/05/05 03:20:49;;;;;;;25.70;23.70;;;14.30;99.90;;;;;;4969785;28;20448;-72
2023/05/05 03:23:17;;;;;;;24.53;22.33;;;14.30;99.90;;;;;;4969636;28;20563;-72
2023/05/05 03:25:46;;;;;;;25.03;23.20;;;14.40;99.90;;;;;;4969931;28;20452;-72
2023/05/05 03:28:14;;;;;;;25.53;23.43;;;14.40;99.90;;;;;;4969662;28;20463;-72
2023/05/05 03:30:41;;;;;;;24.33;22.60;;;14.50;99.90;;;;;;4969640;28;20495;-73
2023/05/05 03:33:08;;;;;;;25.20;23.20;;;14.50;99.90;;;;;;4969772;28;20451;-72
2023/05/05 03:35:35;;;;;;;24.47;22.87;;;14.40;99.90;;;;;;4969602;28;20456;-72
2023/05/05 03:38:01;;;;;;;24.27;22.23;;;14.40;99.90;;;;;;4969568;28;20466;-72
2023/05/05 03:40:29;;;;;;;25.50;23.20;;;14.40;99.90;;;;;;4969493;28;20476;-72
2023/05/05 03:42:57;;;;;;;23.27;21.67;;;14.40;99.90;;;;;;4969591;28;20485;-72
2023/05/05 03:45:23;;;;;;;25.53;23.30;;;14.30;99.90;;;;;;4969612;28;20530;-73
2023/05/05 03:47:50;;;;;;;26.17;23.90;;;14.40;99.90;;;;;;4969638;28;20455;-73
2023/05/05 03:50:17;;;;;;;25.67;23.40;;;14.40;99.90;;;;;;4969340;28;20784;-73
2023/05/05 03:52:43;;;;;;;25.10;23.00;;;14.30;99.90;;;;;;4969399;28;20463;-75
2023/05/05 03:55:10;;;;;;;25.40;23.40;;;14.40;99.90;;;;;;4969717;28;20973;-74
2023/05/05 03:57:37;;;;;;;26.17;24.13;;;14.40;99.90;;;;;;4969209;28;20451;-73
2023/05/05 04:00:10;;;;;;;26.00;23.90;;;14.50;99.90;;;;;;4969661;28;20462;-73
2023/05/05 04:02:37;;;;;;;24.80;22.90;;;14.40;99.90;;;;;;4969805;28;20459;-75
2023/05/05 04:05:04;;;;;;;25.07;23.43;;;14.50;99.90;;;;;;4969228;28;20467;-74
2023/05/05 04:07:31;;;;;;;23.73;21.93;;;14.50;99.90;;;;;;4972304;28;20470;-74
2023/05/05 04:09:57;;;;;;;25.43;23.60;;;14.50;99.90;;;;;;4973078;28;20572;-75
2023/05/05 04:12:24;;;;;;;27.40;25.07;;;14.50;99.90;;;;;;4973207;28;20992;-73
2023/05/05 04:14:51;;;;;;;27.30;24.93;;;14.50;99.90;;;;;;4973108;28;20464;-74
2023/05/05 04:17:19;;;;;;;26.20;23.90;;;14.50;99.90;;;;;;4972878;28;20455;-75
2023/05/05 04:19:45;;;;;;;24.93;23.20;;;14.50;99.90;;;;;;4972666;28;20965;-75
2023/05/05 04:22:12;;;;;;;27.43;24.77;;;14.60;99.90;;;;;;4972591;28;20478;-74
2023/05/05 04:24:39;;;;;;;26.27;24.20;;;14.60;99.90;;;;;;4971693;28;20463;-74
2023/05/05 04:27:05;;;;;;;27.47;25.40;;;14.60;99.90;;;;;;4971434;28;20440;-74
2023/05/05 04:29:32;;;;;;;27.77;25.17;;;14.70;99.90;;;;;;4971020;28;20570;-73
2023/05/05 04:31:59;;;;;;;25.60;23.60;;;14.80;99.90;;;;;;4972407;28;20468;-73
2023/05/05 04:34:28;;;;;;;26.37;23.70;;;14.90;99.90;;;;;;4972631;28;20645;-74
2023/05/05 04:36:54;;;;;;;26.73;24.47;;;14.90;99.90;;;;;;4972551;28;20956;-73
2023/05/05 04:39:21;;;;;;;26.27;23.87;;;14.90;99.90;;;;;;4972471;28;20470;-73
2023/05/05 04:41:48;;;;;;;27.20;25.10;;;15.00;99.90;;;;;;4972210;28;20498;-73
2023/05/05 04:44:14;;;;;;;26.57;24.47;;;15.00;99.90;;;;;;4972453;28;20459;-73
2023/05/05 04:46:41;;;;;;;27.80;25.80;;;15.00;99.90;;;;;;4972818;28;20467;-72
2023/05/05 04:49:08;;;;;;;27.33;24.87;;;15.00;99.90;;;;;;4973462;28;20498;-73
2023/05/05 04:51:36;;;;;;;25.20;23.30;;;15.10;99.90;;;;;;4973250;28;20460;-73
2023/05/05 04:54:03;;;;;;;27.27;25.20;;;15.30;99.90;;;;;;4973216;28;20598;-73
2023/05/05 04:56:31;;;;;;;25.77;23.77;;;15.20;99.90;;;;;;4973168;28;20624;-73
2023/05/05 04:58:57;;;;;;;26.40;24.47;;;15.20;99.90;;;;;;4973307;28;20455;-73
2023/05/05 05:01:24;;;;;;;26.00;23.57;;;15.30;99.90;;;;;;4963422;28;20479;-73
2023/05/05 05:03:51;;;;;;;23.90;22.10;;;15.40;99.90;;;;;;4973049;28;20533;-73
2023/05/05 05:06:17;;;;;;;22.97;21.47;;;15.50;99.90;;;;;;4972918;28;20455;-75
2023/05/05 05:08:45;;;;;;;22.40;20.77;;;15.50;99.90;;;;;;4972810;28;20459;-74
2023/05/05 05:11:12;;;;;;;20.80;19.30;;;15.70;99.90;;;;;;4972687;28;20491;-74
2023/05/05 05:13:39;;;;;;;20.83;19.53;;;15.80;99.90;;;;;;4973047;28;20506;-74
2023/05/05 05:16:06;;;;;;;19.93;18.60;;;16.10;99.90;;;;;;4973048;28;20447;-72
2023/05/05 05:18:33;;;;;;;19.30;17.80;;;16.40;99.90;;;;;;4971749;28;20463;-73
2023/05/05 05:21:00;;;;;;;19.40;18.07;;;16.80;99.90;;;;;;4972666;28;21008;-72
2023/05/05 05:23:26;;;;;;;18.80;17.60;;;17.10;99.90;;;;;;4972759;28;20455;-73
2023/05/05 05:25:55;;;;;;;20.10;18.90;;;17.10;99.90;;;;;;4972972;28;20460;-72
2023/05/05 05:28:21;;;;;;;18.70;17.40;;;17.00;99.90;;;;;;4972892;28;20460;-74
2023/05/05 05:30:48;;;;;;;18.90;17.77;;;16.90;99.90;;;;;;4972400;28;20538;-72
2023/05/05 05:33:15;;;;;;;19.70;18.30;;;16.80;99.90;;;;;;4972641;28;21044;-74
2023/05/05 05:35:41;;;;;;;19.60;18.30;;;16.90;99.90;;;;;;4972643;28;20459;-73
2023/05/05 05:38:08;;;;;;;22.27;20.33;;;17.20;99.90;;;;;;4972671;28;20451;-73
2023/05/05 05:40:35;;;;;;;20.63;19.23;;;17.40;99.90;;;;;;4972495;28;20480;-75
2023/05/05 05:43:03;;;;;;;19.47;18.17;;;17.60;99.90;;;;;;4972345;28;20860;-73
2023/05/05 05:45:29;;;;;;;20.47;19.07;;;17.70;99.90;;;;;;4972499;28;20686;-73
2023/05/05 05:47:57;;;;;;;19.60;18.30;;;17.80;99.90;;;;;;4972285;28;20452;-72
2023/05/05 05:50:27;;;;;;;20.63;19.03;;;17.80;99.90;;;;;;4972302;28;20498;-72
2023/05/05 05:52:53;;;;;;;20.87;19.33;;;17.70;99.90;;;;;;4972448;28;20496;-73
2023/05/05 05:55:20;;;;;;;20.30;19.10;;;17.70;99.90;;;;;;4972137;28;20455;-74
2023/05/05 05:57:47;;;;;;;20.20;18.50;;;17.80;99.90;;;;;;4972161;28;20479;-73
2023/05/05 06:00:16;;;;;;;21.50;19.53;;;18.40;99.90;;;;;;4972065;28;20459;-74
2023/05/05 06:02:42;;;;;;;22.33;20.20;;;18.90;99.90;;;;;;4971992;28;20451;-74
2023/05/05 06:05:11;;;;;;;21.57;20.00;;;19.40;99.90;;;;;;4972129;28;20463;-76
2023/05/05 06:07:38;;;;;;;20.20;18.73;;;19.80;99.90;;;;;;4972130;28;20467;-76
2023/05/05 06:10:06;;;;;;;19.73;18.43;;;20.00;99.90;;;;;;4972403;28;20498;-75
2023/05/05 06:12:32;;;;;;;19.33;18.30;;;20.20;99.90;;;;;;4972211;28;20455;-74
2023/05/05 06:14:59;;;;;;;19.33;18.10;;;19.80;99.90;;;;;;4972332;28;20810;-74
2023/05/05 06:17:27;;;;;;;18.07;16.97;;;19.40;99.90;;;;;;4972142;28;20566;-74
2023/05/05 06:19:54;;;;;;;19.10;17.80;;;19.00;99.90;;;;;;4969926;28;20489;-75
2023/05/05 06:22:20;;;;;;;17.80;16.70;;;18.70;99.90;;;;;;4970114;28;20460;-74
2023/05/05 06:24:47;;;;;;;18.53;17.43;;;18.60;99.90;;;;;;4970219;28;20455;-74
2023/05/05 07:15:03;;;;;;;18.03;16.80;;;20.70;99.90;;;;;;5844450;23;20466;-78
2023/05/05 07:17:29;;;;;;;18.30;16.73;;;20.70;99.90;;;;;;4968781;28;20462;-80
2023/05/05 07:19:56;;;;;;;18.27;17.17;;;20.90;99.90;;;;;;4970784;28;20452;-81
2023/05/05 07:22:23;;;;;;;17.00;16.00;;;21.10;99.90;;;;;;4973707;28;20463;-81
2023/05/05 07:24:52;;;;;;;19.00;17.40;;;21.20;99.90;;;;;;4977956;28;20871;-80
2023/05/05 07:27:18;;;;;;;19.03;17.07;;;21.50;99.90;;;;;;4977782;28;20512;-79
2023/05/05 07:29:45;;;;;;;18.43;16.60;;;21.60;99.90;;;;;;4970320;28;20492;-78
2023/05/05 07:32:13;;;;;;;16.97;15.97;;;21.80;99.90;;;;;;4987999;28;20458;-80
2023/05/05 07:34:40;;;;;;;17.37;16.57;;;21.90;99.90;;;;;;4989710;28;20447;-79
2023/05/05 07:37:07;;;;;;;17.37;16.47;;;21.80;99.90;;;;;;4989883;28;20450;-80
2023/05/05 07:39:34;;;;;;;16.97;16.00;;;21.60;99.90;;;;;;4981218;28;20452;-79
2023/05/05 07:42:01;;;;;;;19.80;18.10;;;21.60;99.90;;;;;;4971624;28;20933;-79
2023/05/05 07:44:27;;;;;;;19.63;18.20;;;21.60;99.90;;;;;;4974229;28;20470;-80
2023/05/05 07:46:54;;;;;;;20.50;18.90;;;21.90;99.90;;;;;;4974656;28;20455;-80
2023/05/05 07:49:22;;;;;;;17.30;16.50;;;22.10;99.90;;;;;;4974512;28;20459;-80
2023/05/05 07:51:49;;;;;;;17.63;16.63;;;22.20;99.90;;;;;;4974455;28;20488;-80
2023/05/05 07:54:16;;;;;;;18.20;17.20;;;22.50;99.90;;;;;;4974182;28;20467;-83
2023/05/05 07:56:43;;;;;;;19.07;17.70;;;22.30;99.90;;;;;;4982948;28;20443;-79
2023/05/05 07:59:11;;;;;;;19.00;17.63;;;22.20;99.90;;;;;;4993722;28;20451;-81
2023/05/05 08:01:38;;;;;;;19.03;18.03;;;22.10;99.90;;;;;;4993503;28;20487;-80
2023/05/05 08:04:05;;;;;;;18.67;17.60;;;21.90;99.90;;;;;;4993768;28;20450;-80
2023/05/05 08:06:33;;;;;;;21.00;19.53;;;21.90;99.90;;;;;;4993462;28;20446;-83
2023/05/05 08:09:00;;;;;;;19.00;17.80;;;21.90;99.90;;;;;;4993388;28;20462;-82
2023/05/05 08:11:27;;;;;;;19.57;18.10;;;21.70;99.90;;;;;;4993213;28;20486;-83
2023/05/05 08:13:54;;;;;;;18.00;16.30;;;21.70;99.90;;;;;;4993453;28;20482;-84
2023/05/05 08:16:20;;;;;;;18.47;17.33;;;21.70;99.90;;;;;;4993176;28;20486;-85
2023/05/05 08:18:47;;;;;;;17.90;16.43;;;21.40;99.90;;;;;;4993829;28;20461;-84
2023/05/05 08:21:14;;;;;;;15.50;14.60;;;21.50;99.90;;;;;;4993362;28;20454;-83
2023/05/05 08:23:42;;;;;;;16.40;15.60;;;21.40;99.90;;;;;;4993168;28;20462;-80
2023/05/05 08:26:08;;;;;;;14.83;14.13;;;21.30;99.90;;;;;;4992958;28;20459;-82
2023/05/05 08:28:36;;;;;;;14.03;13.23;;;21.00;99.90;;;;;;4993116;28;20933;-80
2023/05/05 08:31:03;;;;;;;13.60;12.90;;;20.90;99.90;;;;;;4982442;28;20491;-81
2023/05/05 08:33:30;;;;;;;13.47;12.70;;;21.20;99.90;;;;;;4973096;28;20456;-81
2023/05/05 08:35:56;;;;;;;13.70;13.13;;;21.30;99.90;;;;;;4973278;28;20686;-80
2023/05/05 08:38:23;;;;;;;14.13;13.63;;;21.30;99.90;;;;;;4973394;28;20456;-81
2023/05/05 08:40:51;;;;;;;14.13;13.63;;;21.40;99.90;;;;;;4973451;28;20456;-80
2023/05/05 08:43:21;;;;;;;14.80;14.10;;;21.60;99.90;;;;;;4970850;28;20956;-80
2023/05/05 08:45:50;;;;;;;14.87;14.13;;;21.80;99.90;;;;;;4973317;28;20455;-81
2023/05/05 08:48:19;;;;;;;14.70;14.10;;;21.90;99.90;;;;;;4973189;28;20462;-83
2023/05/05 08:50:51;;;;;;;15.83;15.13;;;22.10;99.90;;;;;;4973230;28;20543;-82
2023/05/05 08:53:21;;;;;;;14.50;13.80;;;21.90;99.90;;;;;;4973063;28;20460;-80
2023/05/05 08:55:54;;;;;;;15.97;14.33;;;22.00;99.90;;;;;;4973108;28;20454;-81
2023/05/05 08:58:23;;;;;;;15.23;14.47;;;22.10;99.90;;;;;;4973237;28;20463;-81
2023/05/05 09:00:50;;;;;;;15.43;14.60;;;22.60;99.90;;;;;;4972995;28;20459;-80
2023/05/05 09:03:17;;;;;;;15.63;14.63;;;22.80;99.90;;;;;;4972948;28;20463;-82
2023/05/05 09:05:44;;;;;;;16.40;15.50;;;22.40;99.90;;;;;;4973000;28;20588;-82
2023/05/05 09:08:11;;;;;;;16.10;15.37;;;22.10;99.90;;;;;;4973029;28;20459;-81
2023/05/05 09:10:40;;;;;;;15.80;14.90;;;21.80;99.90;;;;;;4973097;28;20964;-81
2023/05/05 09:13:08;;;;;;;15.17;14.47;;;21.30;99.90;;;;;;4972953;28;20455;-81
2023/05/05 09:15:37;;;;;;;15.53;14.30;;;21.40;99.90;;;;;;4972875;28;20483;-80
2023/05/05 09:18:07;;;;;;;15.23;14.43;;;21.50;99.90;;;;;;4973205;28;20466;-81
2023/05/05 09:20:35;;;;;;;13.83;13.23;;;21.70;99.90;;;;;;4973160;28;20502;-81
2023/05/05 09:23:08;;;;;;;16.20;15.50;;;21.80;99.90;;;;;;4972848;28;20451;-82
2023/05/05 09:25:35;;;;;;;15.03;14.40;;;21.60;99.90;;;;;;4973007;28;20487;-81
2023/05/05 09:28:11;;;;;;;15.57;14.87;;;21.70;99.90;;;;;;4972856;28;20976;-79
2023/05/05 09:30:38;;;;;;;14.33;13.47;;;21.60;99.90;;;;;;4972234;28;20498;-79
2023/05/05 09:33:05;;;;;;;17.13;15.83;;;21.70;99.90;;;;;;4972660;28;20514;-80
2023/05/05 09:35:48;;;;;;;17.83;16.37;;;21.60;99.90;;;;;;4972503;28;20467;-80
2023/05/05 09:38:14;;;;;;;16.47;15.67;;;21.90;99.90;;;;;;4972313;28;20538;-79
2023/05/05 09:40:47;;;;;;;15.80;15.00;;;22.20;99.90;;;;;;4972475;28;20444;-79
2023/05/05 09:43:15;;;;;;;15.70;14.77;;;22.70;99.90;;;;;;4972870;28;20488;-78
2023/05/05 09:45:42;;;;;;;15.77;14.97;;;22.90;99.90;;;;;;4972621;28;20490;-80
2023/05/05 09:48:23;;;;;;;17.23;16.53;;;23.20;99.90;;;;;;4972286;28;20494;-79
2023/05/05 09:50:50;;;;;;;16.00;15.30;;;23.80;99.90;;;;;;4972561;28;21090;-79
2023/05/05 09:53:17;;;;;;;15.73;14.90;;;23.80;99.90;;;;;;4972658;28;20565;-79
2023/05/05 09:55:53;;;;;;;15.70;15.00;;;24.00;99.90;;;;;;4972568;28;20546;-80
2023/05/05 09:58:23;;;;;;;15.27;14.57;;;24.80;98.70;;;;;;4972669;28;20509;-79
2023/05/05 10:00:50;;;;;;;14.57;13.90;;;25.50;96.60;;;;;;4972624;28;20972;-79
2023/05/05 10:03:17;;;;;;;15.70;14.93;;;26.10;95.50;;;;;;4972338;28;20456;-80
2023/05/05 10:05:50;;;;;;;14.50;14.00;;;26.90;91.10;;;;;;4971887;28;20455;-80
2023/05/05 10:08:18;;;;;;;15.40;14.70;;;27.20;91.40;;;;;;4972202;28;20533;-80
2023/05/05 10:10:53;;;;;;;15.03;14.33;;;28.10;88.00;;;;;;4971836;28;20495;-80
2023/05/05 10:13:23;;;;;;;14.83;14.20;;;28.40;86.70;;;;;;4972261;28;20459;-80
2023/05/05 10:15:51;;;;;;;15.37;14.80;;;28.70;85.20;;;;;;4972078;28;21002;-82
2023/05/05 10:18:21;;;;;;;14.23;13.73;;;29.10;85.00;;;;;;4972351;28;20467;-81
2023/05/05 10:20:52;;;;;;;15.37;14.63;;;29.60;82.10;;;;;;4971973;28;20518;-81
2023/05/05 10:23:23;;;;;;;14.50;13.70;;;30.10;79.60;;;;;;4972208;28;20502;-82
2023/05/05 10:25:55;;;;;;;16.00;15.23;;;29.80;79.30;;;;;;4972080;28;20466;-82
2023/05/05 10:28:31;;;;;;;15.47;14.87;;;29.90;77.70;;;;;;4972125;28;20506;-82
2023/05/05 10:31:01;;;;;;;14.47;13.77;;;29.80;77.80;;;;;;4981079;28;20980;-82
2023/05/05 10:33:34;;;;;;;15.10;14.20;;;29.90;77.00;;;;;;4992106;28;20455;-82
2023/05/05 10:36:04;;;;;;;15.20;14.60;;;29.40;77.70;;;;;;4992319;28;20481;-84
2023/05/05 10:38:32;;;;;;;15.40;14.60;;;28.80;77.80;;;;;;4992325;28;20940;-82
2023/05/05 10:41:00;;;;;;;14.00;13.30;;;28.60;80.70;;;;;;4991675;28;20446;-84
2023/05/05 10:43:29;;;;;;;14.63;14.13;;;28.10;79.80;;;;;;4991714;28;20455;-81
2023/05/05 10:45:56;;;;;;;15.40;14.40;;;27.50;81.60;;;;;;4986216;28;20506;-81
2023/05/05 10:48:32;;;;;;;14.53;13.93;;;27.60;81.60;;;;;;4991727;28;20474;-83
2023/05/05 10:51:08;;;;;;;14.17;13.67;;;27.30;81.90;;;;;;4991659;28;21070;-84
2023/05/05 10:53:42;;;;;;;14.30;13.70;;;27.10;82.50;;;;;;4992647;28;20995;-83
2023/05/05 10:56:14;;;;;;;15.37;14.77;;;26.70;83.90;;;;;;4991608;28;20457;-80
2023/05/05 10:58:42;;;;;;;13.93;13.33;;;26.50;84.90;;;;;;4990957;28;20457;-79
2023/05/05 11:01:09;;;;;;;14.97;14.37;;;26.40;85.70;;;;;;4990868;28;20447;-78
2023/05/05 11:03:36;;;;;;;14.97;14.30;;;26.20;86.60;;;;;;4991111;28;20454;-80
2023/05/05 11:06:11;;;;;;;14.53;14.03;;;26.00;87.00;;;;;;4990398;28;20459;-78
2023/05/05 11:08:39;;;;;;;14.27;13.47;;;25.60;89.00;;;;;;4990743;28;20812;-78
2023/05/05 11:11:06;;;;;;;15.20;14.60;;;25.60;90.00;;;;;;4990754;28;20509;-78
2023/05/05 11:13:33;;;;;;;14.90;14.20;;;25.40;89.80;;;;;;4990601;28;20474;-78
2023/05/05 11:16:01;;;;;;;15.80;15.10;;;25.00;91.60;;;;;;4989563;28;20486;-79
2023/05/05 11:18:34;;;;;;;15.03;14.43;;;25.00;91.90;;;;;;4990758;28;20875;-78
2023/05/05 11:21:06;;;;;;;13.10;12.60;;;24.70;92.00;;;;;;4990092;28;20921;-78
2023/05/05 11:23:33;;;;;;;14.20;13.60;;;24.60;92.40;;;;;;4990682;28;20907;-78
2023/05/05 11:26:00;;;;;;;14.80;14.20;;;24.50;92.10;;;;;;4990607;28;20450;-78
2023/05/05 11:28:29;;;;;;;14.00;13.40;;;24.50;92.70;;;;;;4990182;28;20462;-78
2023/05/05 11:31:25;;;;;;;13.60;13.00;;;24.40;92.90;;;;;;4980557;28;20976;-80
2023/05/05 11:33:52;;;;;;;14.83;14.23;;;24.50;92.80;;;;;;4926260;28;20515;-79
2023/05/05 11:36:20;;;;;;;14.60;13.90;;;24.90;92.00;;;;;;4971173;28;20486;-78
2023/05/05 11:39:01;;;;;;;16.63;15.60;;;25.60;92.50;;;;;;4971024;28;20451;-80
2023/05/05 11:41:52;;;;;;;14.83;14.13;;;25.90;90.70;;;;;;4971077;28;20443;-78
2023/05/05 11:44:20;;;;;;;15.83;15.13;;;26.60;90.90;;;;;;4971158;28;20526;-79
2023/05/05 11:47:28;;;;;;;15.90;15.27;;;27.50;87.00;;;;;;4971360;28;20458;-79
2023/05/05 11:49:56;;;;;;;14.73;14.13;;;28.40;83.00;;;;;;4932673;28;20838;-78
2023/05/05 11:52:28;;;;;;;14.87;14.20;;;28.30;85.50;;;;;;4971124;28;20549;-82
2023/05/05 11:55:00;;;;;;;16.20;15.57;;;29.20;82.60;;;;;;4970934;28;20457;-83
2023/05/05 11:57:28;;;;;;;16.20;15.60;;;30.40;78.50;;;;;;4971510;28;20567;-82
2023/05/05 11:59:57;;;;;;;16.00;14.87;;;31.00;73.40;;;;;;4971724;28;20455;-82
2023/05/05 12:02:26;;;;;;;15.57;14.87;;;31.60;72.90;;;;;;4971049;28;20443;-81
2023/05/05 12:04:55;;;;;;;15.20;14.57;;;31.20;71.40;;;;;;4971393;28;20518;-81
2023/05/05 12:07:24;;;;;;;14.97;14.40;;;30.70;73.80;;;;;;4971450;28;20463;-81
2023/05/05 12:09:51;;;;;;;16.13;15.07;;;30.70;74.10;;;;;;4971414;28;20456;-80
2023/05/05 12:12:18;;;;;;;14.70;14.10;;;31.00;72.00;;;;;;4970875;28;20495;-83
2023/05/05 12:14:47;;;;;;;16.53;15.83;;;31.90;70.00;;;;;;4970708;28;20478;-80
2023/05/05 12:17:14;;;;;;;16.37;15.77;;;31.60;70.40;;;;;;4971091;28;20470;-80
2023/05/05 12:19:52;;;;;;;15.43;14.73;;;32.10;68.60;;;;;;4971597;28;20451;-81
2023/05/05 12:22:22;;;;;;;14.40;13.83;;;33.30;64.80;;;;;;4971719;28;20942;-82
2023/05/05 12:24:55;;;;;;;16.03;15.43;;;32.80;63.30;;;;;;4971840;28;20914;-83
2023/05/05 12:27:23;;;;;;;15.77;15.07;;;31.70;65.30;;;;;;4973199;28;20456;-80
2023/05/05 12:29:50;;;;;;;14.50;13.90;;;31.40;65.20;;;;;;4975170;28;20567;-81
2023/05/05 12:32:21;;;;;;;15.13;14.33;;;30.70;66.70;;;;;;4993798;28;20490;-81
2023/05/05 12:34:48;;;;;;;15.40;14.63;;;30.40;67.20;;;;;;4993417;28;20455;-79
2023/05/05 12:37:17;;;;;;;15.00;14.30;;;29.50;68.40;;;;;;4993529;28;20818;-77
2023/05/05 12:39:45;;;;;;;15.13;14.17;;;28.50;69.50;;;;;;4993188;28;20462;-78
2023/05/05 12:42:12;;;;;;;15.20;14.20;;;28.20;70.00;;;;;;4993208;28;20447;-78
2023/05/05 12:44:42;;;;;;;13.30;12.77;;;28.20;71.00;;;;;;4993256;28;20458;-78
2023/05/05 12:47:09;;;;;;;13.93;13.43;;;28.00;72.30;;;;;;4993263;28;20455;-77
2023/05/05 12:49:45;;;;;;;13.33;12.83;;;27.80;72.00;;;;;;4993390;28;20971;-78
2023/05/05 12:52:13;;;;;;;13.97;13.37;;;27.00;72.90;;;;;;4993237;28;20486;-79
2023/05/05 12:54:53;;;;;;;13.57;12.87;;;26.50;75.80;;;;;;4993098;28;20455;-78
2023/05/05 12:57:20;;;;;;;15.93;15.03;;;25.90;78.50;;;;;;4993497;28;20450;-81
2023/05/05 12:59:47;;;;;;;14.30;13.80;;;25.90;80.10;;;;;;4993181;28;20944;-78
2023/05/05 13:02:14;;;;;;;14.10;13.50;;;26.10;79.60;;;;;;4993013;28;20609;-80
2023/05/05 13:04:49;;;;;;;14.43;13.83;;;26.60;79.30;;;;;;4992924;28;20455;-77
2023/05/05 13:07:18;;;;;;;14.57;14.07;;;27.10;77.40;;;;;;4992994;28;20569;-77
2023/05/05 13:09:45;;;;;;;13.20;12.70;;;27.90;75.80;;;;;;4992946;28;20466;-79
2023/05/05 13:12:14;;;;;;;14.93;14.33;;;28.50;75.00;;;;;;4992924;28;20902;-76
2023/05/05 13:14:42;;;;;;;15.13;14.53;;;28.50;74.80;;;;;;4992237;28;20485;-78
2023/05/05 13:17:09;;;;;;;15.10;14.40;;;28.80;72.60;;;;;;4992631;28;20977;-79
2023/05/05 13:19:40;;;;;;;13.70;13.00;;;29.00;72.50;;;;;;4992755;28;20557;-79
2023/05/05 13:22:08;;;;;;;14.20;13.70;;;28.50;73.70;;;;;;4992744;28;20458;-78
2023/05/05 13:24:35;;;;;;;14.20;13.70;;;28.30;73.70;;;;;;4992774;28;20494;-77